createdAt,value
2023-03-06T00:00:25.172Z,63.08
2023-03-06T00:02:52.331Z,63.33
2023-03-06T00:05:19.612Z,63.28
2023-03-06T00:07:46.281Z,63.14
2023-03-06T00:10:18.980Z,63.01
2023-03-06T00:12:46.064Z,63.09
2023-03-06T00:15:14.007Z,63.08
2023-03-06T00:17:41.514Z,63.14
2023-03-06T00:20:11.818Z,62.99
2023-03-06T00:22:39.036Z,62.93
2023-03-06T00:25:07.158Z,62.95
2023-03-06T00:27:34.037Z,62.98
2023-03-06T00:30:01.221Z,63.05
2023-03-06T00:32:28.913Z,62.97
2023-03-06T00:34:56.465Z,63.03
2023-03-06T00:37:24.444Z,63.00
2023-03-06T00:39:51.641Z,63.09
2023-03-06T00:42:19.325Z,63.12
2023-03-06T00:44:46.399Z,63.26
2023-03-06T00:47:14.012Z,63.40
2023-03-06T00:49:40.597Z,63.59
2023-03-06T00:52:07.250Z,63.26
2023-03-06T00:54:33.865Z,63.45
2023-03-06T00:57:00.516Z,63.56
2023-03-06T00:59:28.103Z,63.60
2023-03-06T01:01:55.299Z,63.56
2023-03-06T01:04:22.410Z,63.41
2023-03-06T01:06:49.344Z,63.61
2023-03-06T01:09:16.176Z,63.44
2023-03-06T01:11:43.065Z,63.20
2023-03-06T01:14:10.882Z,63.30
2023-03-06T01:16:37.591Z,63.40
2023-03-06T01:19:04.540Z,63.47
2023-03-06T01:21:31.190Z,63.04
2023-03-06T01:23:58.617Z,63.42
2023-03-06T01:26:25.316Z,63.45
2023-03-06T01:28:51.960Z,63.35
2023-03-06T01:31:18.685Z,63.16
2023-03-06T01:33:45.276Z,63.15
2023-03-06T01:36:13.332Z,63.17
2023-03-06T01:38:40.021Z,63.26
2023-03-06T01:41:06.898Z,63.22
2023-03-06T01:43:39.467Z,63.12
2023-03-06T01:46:41.923Z,63.22
2023-03-06T01:49:18.503Z,63.28
2023-03-06T01:52:03.565Z,63.27
2023-03-06T01:54:45.021Z,63.31
2023-03-06T01:57:15.315Z,63.12
2023-03-06T01:59:43.245Z,62.95
2023-03-06T02:02:12.577Z,62.81
2023-03-06T02:04:42.461Z,62.71
2023-03-06T02:07:10.497Z,62.81
2023-03-06T02:09:38.664Z,62.54
2023-03-06T02:12:12.869Z,62.29
2023-03-06T02:14:41.332Z,62.16
2023-03-06T02:17:10.187Z,62.14
2023-03-06T02:20:00.248Z,61.97
2023-03-06T02:22:37.732Z,62.52
2023-03-06T02:25:14.109Z,63.15
2023-03-06T02:27:41.108Z,63.57
2023-03-06T02:30:09.360Z,63.81
2023-03-06T02:32:36.361Z,63.48
2023-03-06T02:35:04.080Z,63.21
2023-03-06T02:37:30.733Z,63.06
2023-03-06T02:40:06.209Z,62.80
2023-03-06T02:42:32.870Z,62.68
2023-03-06T02:45:02.383Z,62.48
2023-03-06T02:47:29.314Z,62.32
2023-03-06T02:49:55.952Z,62.19
2023-03-06T02:52:22.824Z,61.97
2023-03-06T02:54:49.517Z,62.02
2023-03-06T02:57:16.282Z,61.91
2023-03-06T02:59:42.986Z,61.79
2023-03-06T03:02:10.162Z,61.79
2023-03-06T03:04:36.923Z,61.70
2023-03-06T03:07:04.107Z,61.71
2023-03-06T03:09:36.869Z,61.84
2023-03-06T03:12:06.709Z,62.24
2023-03-06T03:14:33.701Z,62.68
2023-03-06T03:17:01.590Z,62.59
2023-03-06T03:19:28.302Z,62.19
2023-03-06T03:21:55.711Z,61.92
2023-03-06T03:24:23.107Z,62.00
2023-03-06T03:26:49.992Z,61.98
2023-03-06T03:29:18.674Z,61.91
2023-03-06T03:31:45.326Z,61.85
2023-03-06T03:34:12.188Z,61.75
2023-03-06T03:36:39.699Z,61.72
2023-03-06T03:39:07.492Z,61.75
2023-03-06T03:41:35.121Z,61.78
2023-03-06T03:44:04.250Z,61.66
2023-03-06T03:46:32.165Z,61.60
2023-03-06T03:49:00.794Z,61.50
2023-03-06T03:51:27.944Z,61.45
2023-03-06T03:53:56.833Z,63.00
2023-03-06T03:56:25.735Z,63.83
2023-03-06T03:58:57.821Z,63.39
2023-03-06T04:01:27.941Z,63.53
2023-03-06T04:03:54.950Z,63.73
2023-03-06T04:06:21.663Z,64.21
2023-03-06T04:08:48.515Z,64.75
2023-03-06T04:11:15.926Z,64.77
2023-03-06T04:13:43.744Z,64.30
2023-03-06T04:16:10.870Z,64.39
2023-03-06T04:18:38.152Z,64.16
2023-03-06T04:21:05.606Z,64.28
2023-03-06T04:23:32.666Z,64.16
2023-03-06T04:25:59.852Z,63.67
2023-03-06T04:28:27.396Z,63.59
2023-03-06T04:30:54.255Z,63.35
2023-03-06T04:33:21.609Z,63.14
2023-03-06T04:35:48.780Z,63.13
2023-03-06T04:38:19.276Z,63.07
2023-03-06T04:40:46.060Z,62.96
2023-03-06T04:45:58.533Z,62.81
2023-03-06T04:48:25.205Z,62.78
2023-03-06T04:50:51.788Z,62.81
2023-03-06T04:53:19.768Z,62.51
2023-03-06T04:55:46.431Z,62.41
2023-03-06T04:58:14.393Z,62.50
2023-03-06T05:00:41.095Z,62.44
2023-03-06T05:03:08.994Z,62.63
2023-03-06T05:05:35.694Z,62.60
2023-03-06T05:08:02.286Z,62.63
2023-03-06T05:10:29.324Z,62.61
2023-03-06T05:12:56.004Z,62.40
2023-03-06T05:15:22.651Z,62.56
2023-03-06T05:17:49.275Z,62.66
2023-03-06T05:20:16.737Z,62.79
2023-03-06T05:22:44.869Z,62.47
2023-03-06T05:25:12.041Z,62.22
2023-03-06T05:27:39.140Z,62.28
2023-03-06T05:30:06.969Z,62.39
2023-03-06T05:32:35.582Z,62.30
2023-03-06T05:35:04.026Z,62.23
2023-03-06T05:37:31.410Z,62.31
2023-03-06T05:39:58.549Z,62.32
2023-03-06T05:42:27.596Z,62.23
2023-03-06T05:44:55.162Z,62.28
2023-03-06T05:47:21.817Z,62.23
2023-03-06T05:49:48.752Z,62.35
2023-03-06T05:52:17.658Z,62.36
2023-03-06T05:54:44.661Z,62.48
2023-03-06T05:57:11.352Z,62.46
2023-03-06T05:59:37.942Z,62.49
2023-03-06T06:02:05.683Z,62.27
2023-03-06T06:04:32.649Z,62.21
2023-03-06T06:07:01.164Z,62.33
2023-03-06T06:09:29.031Z,62.63
2023-03-06T06:11:58.649Z,63.22
2023-03-06T06:14:25.727Z,64.07
2023-03-06T06:16:52.946Z,64.82
2023-03-06T06:19:20.456Z,65.08
2023-03-06T06:21:52.926Z,64.92
2023-03-06T06:24:22.568Z,64.49
2023-03-06T06:26:57.674Z,64.76
2023-03-06T06:29:26.066Z,64.22
2023-03-06T06:31:53.609Z,64.27
2023-03-06T06:34:21.641Z,64.37
2023-03-06T06:36:51.594Z,64.67
2023-03-06T06:39:21.747Z,64.46
2023-03-06T06:42:05.485Z,64.95
2023-03-06T06:44:37.693Z,65.80
2023-03-06T06:47:23.723Z,66.18
2023-03-06T06:49:53.116Z,67.32
2023-03-06T06:52:20.056Z,66.79
2023-03-06T06:54:46.845Z,67.27
2023-03-06T06:57:14.754Z,67.08
2023-03-06T06:59:41.627Z,66.44
2023-03-06T07:02:13.897Z,66.30
2023-03-06T07:04:52.284Z,65.95
2023-03-06T07:07:25.341Z,65.62
2023-03-06T07:09:52.221Z,65.53
2023-03-06T07:12:19.069Z,64.95
2023-03-06T07:14:46.939Z,65.48
2023-03-06T07:17:13.532Z,65.70
2023-03-06T07:19:40.336Z,66.01
2023-03-06T07:22:07.753Z,67.34
2023-03-06T07:24:34.737Z,67.19
2023-03-06T07:27:01.373Z,67.32
2023-03-06T07:29:28.110Z,67.42
2023-03-06T07:31:55.054Z,67.47
2023-03-06T07:34:22.457Z,67.28
2023-03-06T07:36:50.853Z,67.30
2023-03-06T07:39:17.708Z,66.76
2023-03-06T07:41:44.455Z,66.44
2023-03-06T07:44:11.129Z,66.12
2023-03-06T07:46:37.993Z,65.77
2023-03-06T07:49:04.664Z,65.48
2023-03-06T07:51:31.305Z,65.11
2023-03-06T07:53:57.938Z,64.92
2023-03-06T07:56:24.635Z,64.55
2023-03-06T07:58:51.278Z,64.47
2023-03-06T08:01:20.901Z,64.06
2023-03-06T08:03:50.265Z,64.43
2023-03-06T08:06:20.513Z,64.11
2023-03-06T08:08:49.052Z,63.94
2023-03-06T08:11:17.804Z,63.64
2023-03-06T08:13:44.939Z,63.28
2023-03-06T08:16:12.158Z,62.55
2023-03-06T08:18:43.679Z,63.05
2023-03-06T08:21:14.947Z,63.76
2023-03-06T08:23:43.798Z,63.51
2023-03-06T08:26:16.290Z,63.94
2023-03-06T08:28:43.891Z,64.31
2023-03-06T08:31:14.200Z,64.11
2023-03-06T08:33:41.229Z,64.67
2023-03-06T08:36:08.040Z,65.28
2023-03-06T08:38:34.664Z,65.37
2023-03-06T08:41:01.627Z,65.58
2023-03-06T08:43:28.466Z,66.01
2023-03-06T08:45:57.385Z,65.69
2023-03-06T08:48:25.139Z,65.40
2023-03-06T08:50:52.177Z,65.62
2023-03-06T08:53:19.328Z,65.33
2023-03-06T08:55:46.367Z,64.88
2023-03-06T08:58:13.635Z,64.77
2023-03-06T09:00:40.427Z,64.36
2023-03-06T09:03:07.202Z,63.48
2023-03-06T09:05:34.473Z,63.84
2023-03-06T09:08:01.142Z,63.32
2023-03-06T09:10:28.175Z,62.81
2023-03-06T09:12:55.516Z,62.83
2023-03-06T09:15:23.704Z,62.36
2023-03-06T09:17:51.152Z,61.98
2023-03-06T09:20:19.211Z,62.20
2023-03-06T09:22:46.382Z,61.74
2023-03-06T09:25:14.258Z,61.39
2023-03-06T09:27:41.643Z,61.83
2023-03-06T09:30:09.552Z,61.90
2023-03-06T09:32:36.202Z,61.70
2023-03-06T09:35:02.895Z,61.34
2023-03-06T09:37:29.882Z,61.31
2023-03-06T09:39:56.572Z,60.70
2023-03-06T09:42:23.829Z,60.34
2023-03-06T09:44:56.381Z,60.08
2023-03-06T09:47:38.329Z,59.76
2023-03-06T09:50:33.332Z,60.38
2023-03-06T09:53:15.403Z,60.06
2023-03-06T09:55:45.350Z,59.82
2023-03-06T09:58:20.193Z,59.44
2023-03-06T10:01:03.954Z,59.28
2023-03-06T10:03:46.945Z,58.21
2023-03-06T10:06:23.992Z,57.96
2023-03-06T10:09:18.784Z,57.12
2023-03-06T10:11:54.552Z,55.09
2023-03-06T10:14:33.229Z,56.07
2023-03-06T10:17:01.008Z,56.15
2023-03-06T10:19:34.525Z,55.59
2023-03-06T10:22:13.854Z,55.69
2023-03-06T10:25:09.618Z,56.07
2023-03-06T10:27:48.278Z,56.37
2023-03-06T10:30:22.669Z,56.93
2023-03-06T10:33:06.368Z,57.53
2023-03-06T10:35:46.928Z,58.25
2023-03-06T10:38:25.841Z,58.37
2023-03-06T10:41:21.513Z,58.28
2023-03-06T10:44:00.217Z,59.51
2023-03-06T10:46:30.026Z,60.29
2023-03-06T10:48:59.493Z,60.02
2023-03-06T10:51:27.459Z,59.96
2023-03-06T10:54:19.173Z,59.88
2023-03-06T10:56:47.174Z,60.01
2023-03-06T10:59:16.318Z,59.83
2023-03-06T11:02:07.871Z,59.54
2023-03-06T11:04:36.449Z,58.99
2023-03-06T11:07:07.194Z,58.86
2023-03-06T11:09:33.870Z,59.58
2023-03-06T11:12:23.062Z,59.15
2023-03-06T11:15:14.740Z,59.33
2023-03-06T11:17:53.483Z,59.14
2023-03-06T11:20:20.308Z,58.90
2023-03-06T11:22:52.128Z,59.54
2023-03-06T11:25:22.124Z,59.47
2023-03-06T11:27:57.720Z,59.87
2023-03-06T11:30:32.461Z,60.25
2023-03-06T11:33:04.532Z,59.40
2023-03-06T11:35:35.814Z,59.06
2023-03-06T11:38:14.175Z,58.53
2023-03-06T11:40:46.370Z,57.94
2023-03-06T11:43:28.044Z,56.52
2023-03-06T11:46:10.810Z,56.13
2023-03-06T11:48:46.433Z,56.49
2023-03-06T11:51:22.742Z,57.50
2023-03-06T11:53:49.597Z,57.40
2023-03-06T11:56:19.351Z,57.74
2023-03-06T11:59:23.632Z,57.70
2023-03-06T12:02:24.795Z,57.63
2023-03-06T12:05:30.793Z,57.26
2023-03-06T12:08:13.096Z,57.04
2023-03-06T12:10:51.878Z,56.56
2023-03-06T12:13:40.110Z,56.32
2023-03-06T12:16:31.465Z,55.85
2023-03-06T12:19:17.678Z,54.49
2023-03-06T12:22:15.982Z,55.02
2023-03-06T12:25:16.870Z,54.58
2023-03-06T12:28:17.874Z,54.80
2023-03-06T12:30:57.068Z,54.47
2023-03-06T12:33:47.467Z,54.28
2023-03-06T12:36:29.607Z,53.98
2023-03-06T12:39:10.793Z,52.95
2023-03-06T12:42:22.603Z,52.75
2023-03-06T12:45:14.547Z,51.93
2023-03-06T12:47:51.376Z,51.87
2023-03-06T12:50:24.025Z,51.60
2023-03-06T12:52:53.798Z,49.90
2023-03-06T12:55:24.921Z,49.73
2023-03-06T12:57:54.056Z,49.49
2023-03-06T13:00:32.794Z,49.82
2023-03-06T13:03:45.880Z,49.55
2023-03-06T13:06:57.954Z,49.40
2023-03-06T13:10:02.058Z,49.37
2023-03-06T13:12:47.349Z,50.33
2023-03-06T13:15:33.033Z,50.12
2023-03-06T13:18:00.204Z,49.75
2023-03-06T13:20:35.171Z,49.95
2023-03-06T13:23:30.549Z,49.82
2023-03-06T13:25:58.741Z,48.38
2023-03-06T13:28:54.968Z,48.74
2023-03-06T13:31:33.756Z,49.65
2023-03-06T13:34:05.940Z,48.82
2023-03-06T13:36:34.401Z,49.64
2023-03-06T13:39:11.916Z,50.05
2023-03-06T13:41:54.030Z,49.24
2023-03-06T13:44:23.583Z,49.02
2023-03-06T13:47:25.482Z,49.11
2023-03-06T13:49:52.372Z,49.08
2023-03-06T13:52:29.908Z,48.17
2023-03-06T13:55:02.731Z,48.86
2023-03-06T13:57:55.406Z,48.63
2023-03-06T14:00:36.998Z,49.06
2023-03-06T14:03:33.856Z,49.28
2023-03-06T14:06:00.691Z,49.73
2023-03-06T14:08:34.322Z,49.53
2023-03-06T14:11:06.017Z,49.43
2023-03-06T14:13:45.536Z,49.56
2023-03-06T14:16:21.668Z,49.86
2023-03-06T14:18:50.630Z,49.32
2023-03-06T14:21:42.232Z,49.02
2023-03-06T14:24:35.328Z,49.67
2023-03-06T14:27:02.095Z,49.35
2023-03-06T14:29:30.238Z,49.63
2023-03-06T14:31:59.219Z,49.61
2023-03-06T14:34:28.892Z,49.17
2023-03-06T14:37:00.009Z,49.09
2023-03-06T14:39:46.549Z,48.69
2023-03-06T14:42:16.340Z,49.15
2023-03-06T14:44:43.519Z,49.65
2023-03-06T14:47:32.182Z,50.32
2023-03-06T14:50:29.152Z,50.80
2023-03-06T14:53:04.313Z,51.27
2023-03-06T14:55:34.985Z,51.74
2023-03-06T14:58:12.047Z,51.70
2023-03-06T15:00:44.015Z,51.84
2023-03-06T15:03:18.202Z,52.30
2023-03-06T15:06:07.013Z,52.48
2023-03-06T15:08:39.383Z,51.35
2023-03-06T15:11:07.485Z,51.44
2023-03-06T15:13:35.613Z,51.39
2023-03-06T15:16:09.226Z,51.20
2023-03-06T15:19:03.552Z,50.88
2023-03-06T15:21:38.483Z,51.15
2023-03-06T15:24:31.212Z,51.67
2023-03-06T15:27:02.102Z,51.62
2023-03-06T15:29:28.948Z,51.31
2023-03-06T15:32:33.617Z,51.65
2023-03-06T15:35:27.559Z,51.82
2023-03-06T15:37:54.868Z,52.25
2023-03-06T15:40:24.401Z,52.24
2023-03-06T15:42:51.135Z,51.82
2023-03-06T15:45:23.076Z,51.66
2023-03-06T15:47:51.369Z,52.01
2023-03-06T15:50:22.416Z,52.12
2023-03-06T15:52:50.170Z,51.74
2023-03-06T15:55:20.129Z,52.05
2023-03-06T15:57:59.879Z,52.09
2023-03-06T16:00:29.454Z,51.97
2023-03-06T16:02:57.600Z,51.80
2023-03-06T16:05:25.966Z,51.80
2023-03-06T16:07:52.893Z,51.93
2023-03-06T16:10:22.613Z,51.81
2023-03-06T16:12:56.115Z,51.69
2023-03-06T16:15:28.948Z,51.66
2023-03-06T16:17:59.945Z,51.61
2023-03-06T16:20:28.869Z,51.58
2023-03-06T16:22:55.904Z,52.03
2023-03-06T16:25:26.370Z,52.11
2023-03-06T16:27:59.784Z,52.07
2023-03-06T16:30:29.835Z,52.62
2023-03-06T16:32:57.338Z,52.51
2023-03-06T16:35:24.503Z,52.86
2023-03-06T16:37:51.589Z,53.47
2023-03-06T16:40:27.080Z,53.64
2023-03-06T16:42:55.092Z,53.66
2023-03-06T16:45:23.338Z,53.89
2023-03-06T16:47:50.603Z,54.17
2023-03-06T16:50:25.968Z,54.16
2023-03-06T16:52:54.612Z,54.55
2023-03-06T16:55:23.462Z,54.16
2023-03-06T16:57:50.389Z,54.20
2023-03-06T17:00:18.811Z,54.82
2023-03-06T17:02:48.850Z,54.42
2023-03-06T17:05:15.681Z,53.72
2023-03-06T17:07:42.476Z,53.71
2023-03-06T17:10:12.249Z,54.11
2023-03-06T17:12:39.320Z,53.93
2023-03-06T17:15:07.705Z,54.25
2023-03-06T17:17:34.832Z,54.28
2023-03-06T17:20:02.332Z,54.37
2023-03-06T17:22:28.978Z,54.40
2023-03-06T17:24:55.576Z,54.39
2023-03-06T17:27:23.139Z,54.61
2023-03-06T17:29:49.962Z,54.83
2023-03-06T17:32:16.573Z,55.21
2023-03-06T17:34:43.278Z,55.17
2023-03-06T17:37:09.907Z,55.21
2023-03-06T17:39:38.859Z,55.32
2023-03-06T17:42:06.682Z,55.21
2023-03-06T17:44:34.579Z,55.40
2023-03-06T17:47:02.166Z,55.55
2023-03-06T17:49:28.833Z,55.68
2023-03-06T17:51:58.098Z,55.88
2023-03-06T17:54:30.021Z,55.84
2023-03-06T17:57:01.087Z,55.85
2023-03-06T17:59:28.656Z,56.07
2023-03-06T18:01:59.422Z,56.17
2023-03-06T18:04:27.381Z,56.28
2023-03-06T18:06:54.116Z,56.49
2023-03-06T18:09:20.812Z,56.42
2023-03-06T18:11:47.462Z,56.48
2023-03-06T18:14:14.221Z,56.45
2023-03-06T18:16:40.937Z,56.57
2023-03-06T18:19:11.152Z,56.67
2023-03-06T18:21:39.146Z,56.89
2023-03-06T18:24:06.165Z,56.97
2023-03-06T18:26:32.812Z,56.94
2023-03-06T18:29:03.798Z,57.03
2023-03-06T18:31:34.717Z,57.07
2023-03-06T18:34:08.630Z,57.29
2023-03-06T18:36:35.820Z,57.38
2023-03-06T18:39:05.212Z,57.30
2023-03-06T18:41:32.445Z,57.10
2023-03-06T18:44:00.853Z,57.15
2023-03-06T18:46:33.137Z,57.10
2023-03-06T18:48:59.904Z,57.04
2023-03-06T18:51:27.578Z,56.89
2023-03-06T18:53:58.229Z,56.93
2023-03-06T18:56:25.130Z,56.81
2023-03-06T18:58:52.936Z,56.63
2023-03-06T19:01:21.030Z,56.65
2023-03-06T19:03:48.234Z,56.65
2023-03-06T19:06:17.069Z,56.78
2023-03-06T19:08:44.196Z,56.77
2023-03-06T19:11:16.785Z,56.86
2023-03-06T19:13:44.826Z,56.76
2023-03-06T19:16:20.066Z,56.63
2023-03-06T19:18:46.752Z,56.62
2023-03-06T19:21:15.902Z,56.67
2023-03-06T19:23:42.907Z,56.74
2023-03-06T19:26:10.138Z,56.98
2023-03-06T19:28:38.422Z,56.91
2023-03-06T19:31:25.699Z,56.97
2023-03-06T19:33:54.141Z,57.15
2023-03-06T19:36:26.883Z,57.26
2023-03-06T19:38:57.195Z,57.44
2023-03-06T19:41:24.543Z,57.53
2023-03-06T19:43:53.823Z,57.77
2023-03-06T19:46:21.867Z,57.91
2023-03-06T19:48:53.461Z,57.97
2023-03-06T19:51:20.353Z,58.10
2023-03-06T19:53:47.096Z,58.08
2023-03-06T19:56:18.576Z,58.26
2023-03-06T19:58:46.738Z,58.30
2023-03-06T20:01:19.421Z,58.42
2023-03-06T20:03:46.286Z,58.29
2023-03-06T20:06:16.017Z,58.47
2023-03-06T20:08:43.558Z,58.53
2023-03-06T20:11:24.415Z,58.50
2023-03-06T20:13:51.776Z,58.85
2023-03-06T20:16:19.427Z,58.73
2023-03-06T20:18:46.703Z,58.77
2023-03-06T20:21:13.797Z,58.79
2023-03-06T20:23:41.579Z,59.17
2023-03-06T20:26:12.088Z,59.08
2023-03-06T20:28:40.599Z,58.88
2023-03-06T20:31:13.593Z,59.13
2023-03-06T20:33:40.369Z,59.18
2023-03-06T20:36:22.133Z,59.16
2023-03-06T20:38:49.730Z,59.30
2023-03-06T20:41:16.972Z,59.55
2023-03-06T20:43:43.880Z,59.42
2023-03-06T20:46:12.366Z,59.37
2023-03-06T20:48:40.155Z,59.34
2023-03-06T20:51:14.885Z,59.49
2023-03-06T20:53:41.595Z,59.48
2023-03-06T20:56:12.796Z,59.50
2023-03-06T20:58:39.523Z,59.45
2023-03-06T21:01:06.449Z,59.51
2023-03-06T21:03:33.146Z,59.51
2023-03-06T21:05:59.877Z,59.67
2023-03-06T21:08:26.532Z,59.59
2023-03-06T21:10:53.166Z,59.56
2023-03-06T21:13:19.836Z,59.60
2023-03-06T21:15:47.728Z,59.46
2023-03-06T21:18:14.757Z,59.33
2023-03-06T21:20:42.363Z,59.38
2023-03-06T21:23:09.176Z,59.42
2023-03-06T21:25:36.024Z,59.26
2023-03-06T21:28:02.965Z,59.34
2023-03-06T21:30:30.538Z,59.18
2023-03-06T21:32:57.245Z,59.15
2023-03-06T21:35:23.965Z,59.11
2023-03-06T21:37:50.673Z,58.93
2023-03-06T21:40:17.436Z,58.85
2023-03-06T21:42:44.064Z,58.86
2023-03-06T21:45:12.563Z,58.80
2023-03-06T21:47:41.097Z,58.99
2023-03-06T21:50:11.329Z,59.01
2023-03-06T21:52:37.941Z,59.16
2023-03-06T21:55:05.239Z,58.96
2023-03-06T21:57:32.324Z,58.95
2023-03-06T21:59:58.999Z,59.09
2023-03-06T22:02:25.644Z,58.90
2023-03-06T22:04:52.793Z,59.05
2023-03-06T22:07:20.196Z,59.03
2023-03-06T22:09:47.272Z,58.95
2023-03-06T22:12:13.965Z,59.03
2023-03-06T22:14:43.550Z,59.02
2023-03-06T22:17:10.284Z,59.13
2023-03-06T22:19:37.010Z,58.93
2023-03-06T22:22:04.130Z,59.15
2023-03-06T22:24:32.024Z,59.18
2023-03-06T22:26:58.656Z,59.39
2023-03-06T22:29:28.288Z,59.19
2023-03-06T22:31:54.970Z,59.45
2023-03-06T22:34:21.744Z,59.47
2023-03-06T22:36:48.500Z,59.49
2023-03-06T22:39:15.118Z,59.80
2023-03-06T22:41:44.766Z,59.97
2023-03-06T22:44:17.664Z,60.26
2023-03-06T22:46:45.001Z,59.90
2023-03-06T22:49:13.419Z,60.09
2023-03-06T22:51:40.405Z,59.90
2023-03-06T22:54:07.671Z,59.93
2023-03-06T22:56:34.766Z,59.66
2023-03-06T22:59:01.808Z,59.53
2023-03-06T23:01:31.905Z,59.81
2023-03-06T23:04:01.418Z,59.67
2023-03-06T23:06:36.482Z,59.56
2023-03-06T23:09:11.999Z,59.69
2023-03-06T23:11:57.089Z,59.71
2023-03-06T23:14:42.401Z,59.67
2023-03-06T23:17:28.245Z,60.53
2023-03-06T23:20:13.757Z,61.46
2023-03-06T23:22:59.441Z,61.58
2023-03-06T23:25:41.951Z,62.20
2023-03-06T23:28:08.543Z,62.79
2023-03-06T23:30:35.267Z,63.16
2023-03-06T23:33:01.982Z,63.06
2023-03-06T23:35:28.648Z,63.36
2023-03-06T23:37:55.378Z,62.89
2023-03-06T23:40:22.402Z,63.26
2023-03-06T23:42:49.057Z,63.12
2023-03-06T23:45:16.397Z,63.18
2023-03-06T23:47:43.072Z,63.22
2023-03-06T23:50:10.682Z,63.17
2023-03-06T23:52:38.423Z,63.20
2023-03-06T23:55:05.913Z,63.13
2023-03-06T23:57:33.186Z,62.71
2023-03-06T23:59:59.813Z,62.41
